Terminal Aerodrome Forecast
Issued by NWS Newport/Morehead City, NC

Home | Current Version | Previous Version | Graphics & Text | Print | Product List | Glossary On
Versions: 1 2 3 4 5 6 7 8 9 10 11 12
860
FTUS42 KMHX 181121
TAFEWN
TAF
KEWN 181121Z 1812/1912 VRB03KT P6SM OVC035
     FM181500 27004KT P6SM SCT025
     FM182300 VRB03KT P6SM SCT025 BKN200
     FM190800 00000KT 3SM BR BKN050=

USA.gov is the U.S. government's official web portal to all federal, state and local government web resources and services.